sensor_id;sensor_type;location;lat;lon;timestamp;P1;durP1;ratioP1;P2;durP2;ratioP2
61644;SDS011;47553;52.428;13.382;2022-12-07T00:01:44;11.13;;;4.18;;
61644;SDS011;47553;52.428;13.382;2022-12-07T00:03:48;13.80;;;4.20;;
61644;SDS011;47553;52.428;13.382;2022-12-07T00:05:51;11.10;;;4.57;;
61644;SDS011;47553;52.428;13.382;2022-12-07T00:07:53;14.73;;;5.05;;
61644;SDS011;47553;52.428;13.382;2022-12-07T00:09:56;10.65;;;3.75;;
61644;SDS011;47553;52.428;13.382;2022-12-07T00:11:58;11.73;;;4.85;;
61644;SDS011;47553;52.428;13.382;2022-12-07T00:16:04;11.88;;;3.80;;
61644;SDS011;47553;52.428;13.382;2022-12-07T00:18:07;13.48;;;4.50;;
61644;SDS011;47553;52.428;13.382;2022-12-07T00:20:10;19.25;;;7.30;;
61644;SDS011;47553;52.428;13.382;2022-12-07T00:22:12;12.98;;;5.03;;
61644;SDS011;47553;52.428;13.382;2022-12-07T00:24:14;19.33;;;7.55;;
61644;SDS011;47553;52.428;13.382;2022-12-07T00:28:20;21.20;;;6.68;;
61644;SDS011;47553;52.428;13.382;2022-12-07T00:30:22;21.50;;;7.65;;
61644;SDS011;47553;52.428;13.382;2022-12-07T00:32:24;17.83;;;6.15;;
61644;SDS011;47553;52.428;13.382;2022-12-07T00:34:29;18.48;;;6.30;;
61644;SDS011;47553;52.428;13.382;2022-12-07T00:36:31;15.70;;;5.68;;
61644;SDS011;47553;52.428;13.382;2022-12-07T00:38:34;14.32;;;5.05;;
61644;SDS011;47553;52.428;13.382;2022-12-07T00:40:36;13.95;;;4.78;;
61644;SDS011;47553;52.428;13.382;2022-12-07T00:44:41;12.25;;;4.28;;
61644;SDS011;47553;52.428;13.382;2022-12-07T00:46:43;13.18;;;4.95;;
61644;SDS011;47553;52.428;13.382;2022-12-07T00:50:49;8.43;;;3.17;;
61644;SDS011;47553;52.428;13.382;2022-12-07T00:52:52;12.23;;;4.57;;
61644;SDS011;47553;52.428;13.382;2022-12-07T00:55:02;8.18;;;3.08;;
61644;SDS011;47553;52.428;13.382;2022-12-07T00:57:16;9.43;;;3.95;;
61644;SDS011;47553;52.428;13.382;2022-12-07T00:59:20;10.00;;;3.83;;
61644;SDS011;47553;52.428;13.382;2022-12-07T01:01:22;9.50;;;3.80;;
61644;SDS011;47553;52.428;13.382;2022-12-07T01:03:25;9.43;;;3.83;;
61644;SDS011;47553;52.428;13.382;2022-12-07T01:07:28;7.97;;;3.20;;
61644;SDS011;47553;52.428;13.382;2022-12-07T01:09:30;10.75;;;4.10;;
61644;SDS011;47553;52.428;13.382;2022-12-07T01:11:31;10.15;;;3.83;;
61644;SDS011;47553;52.428;13.382;2022-12-07T01:13:34;11.75;;;3.80;;
61644;SDS011;47553;52.428;13.382;2022-12-07T01:15:40;12.93;;;4.18;;
61644;SDS011;47553;52.428;13.382;2022-12-07T01:17:42;10.32;;;4.25;;
61644;SDS011;47553;52.428;13.382;2022-12-07T01:19:43;9.65;;;3.80;;
61644;SDS011;47553;52.428;13.382;2022-12-07T01:21:45;10.05;;;4.00;;
61644;SDS011;47553;52.428;13.382;2022-12-07T01:25:53;11.18;;;3.63;;
61644;SDS011;47553;52.428;13.382;2022-12-07T01:27:55;11.20;;;4.30;;
61644;SDS011;47553;52.428;13.382;2022-12-07T01:29:57;10.38;;;3.88;;
61644;SDS011;47553;52.428;13.382;2022-12-07T01:32:01;9.38;;;3.47;;
61644;SDS011;47553;52.428;13.382;2022-12-07T01:34:03;10.95;;;4.50;;
61644;SDS011;47553;52.428;13.382;2022-12-07T01:38:07;11.93;;;3.72;;
61644;SDS011;47553;52.428;13.382;2022-12-07T01:40:09;10.98;;;3.90;;
61644;SDS011;47553;52.428;13.382;2022-12-07T01:42:12;10.40;;;4.22;;
61644;SDS011;47553;52.428;13.382;2022-12-07T01:46:16;13.38;;;4.35;;
61644;SDS011;47553;52.428;13.382;2022-12-07T01:48:20;11.93;;;4.55;;
61644;SDS011;47553;52.428;13.382;2022-12-07T01:50:26;12.07;;;4.70;;
61644;SDS011;47553;52.428;13.382;2022-12-07T01:52:30;12.15;;;4.93;;
61644;SDS011;47553;52.428;13.382;2022-12-07T01:54:34;15.45;;;5.53;;
61644;SDS011;47553;52.428;13.382;2022-12-07T01:56:37;16.25;;;4.95;;
61644;SDS011;47553;52.428;13.382;2022-12-07T01:58:41;12.07;;;4.88;;
61644;SDS011;47553;52.428;13.382;2022-12-07T02:00:44;10.73;;;4.50;;
61644;SDS011;47553;52.428;13.382;2022-12-07T02:02:48;10.07;;;4.15;;
61644;SDS011;47553;52.428;13.382;2022-12-07T02:04:55;10.85;;;4.50;;
61644;SDS011;47553;52.428;13.382;2022-12-07T02:06:59;10.85;;;4.47;;
61644;SDS011;47553;52.428;13.382;2022-12-07T02:09:01;12.43;;;4.72;;
61644;SDS011;47553;52.428;13.382;2022-12-07T02:11:04;11.73;;;5.03;;
61644;SDS011;47553;52.428;13.382;2022-12-07T02:13:09;10.93;;;4.32;;
61644;SDS011;47553;52.428;13.382;2022-12-07T02:15:14;11.57;;;4.03;;
61644;SDS011;47553;52.428;13.382;2022-12-07T02:17:18;9.70;;;4.00;;
61644;SDS011;47553;52.428;13.382;2022-12-07T02:19:38;8.63;;;3.55;;
61644;SDS011;47553;52.428;13.382;2022-12-07T02:22:06;12.20;;;4.28;;
61644;SDS011;47553;52.428;13.382;2022-12-07T02:24:31;9.43;;;3.70;;
61644;SDS011;47553;52.428;13.382;2022-12-07T02:26:55;8.23;;;3.13;;
61644;SDS011;47553;52.428;13.382;2022-12-07T02:29:15;9.65;;;3.88;;
61644;SDS011;47553;52.428;13.382;2022-12-07T02:31:23;11.70;;;4.55;;
61644;SDS011;47553;52.428;13.382;2022-12-07T02:33:30;10.73;;;4.18;;
61644;SDS011;47553;52.428;13.382;2022-12-07T02:35:38;10.95;;;4.28;;
61644;SDS011;47553;52.428;13.382;2022-12-07T02:37:42;10.13;;;3.63;;
61644;SDS011;47553;52.428;13.382;2022-12-07T02:39:55;9.50;;;3.63;;
61644;SDS011;47553;52.428;13.382;2022-12-07T02:42:02;10.35;;;4.00;;
61644;SDS011;47553;52.428;13.382;2022-12-07T02:44:10;9.35;;;3.63;;
61644;SDS011;47553;52.428;13.382;2022-12-07T02:46:17;8.60;;;3.33;;
61644;SDS011;47553;52.428;13.382;2022-12-07T02:48:22;8.07;;;3.38;;
61644;SDS011;47553;52.428;13.382;2022-12-07T02:50:26;9.70;;;3.92;;
61644;SDS011;47553;52.428;13.382;2022-12-07T02:52:28;8.65;;;3.55;;
61644;SDS011;47553;52.428;13.382;2022-12-07T02:54:29;8.65;;;3.30;;
61644;SDS011;47553;52.428;13.382;2022-12-07T02:56:33;9.07;;;3.70;;
61644;SDS011;47553;52.428;13.382;2022-12-07T02:58:43;8.23;;;3.33;;
61644;SDS011;47553;52.428;13.382;2022-12-07T03:00:58;9.38;;;3.70;;
61644;SDS011;47553;52.428;13.382;2022-12-07T03:03:11;9.50;;;4.20;;
61644;SDS011;47553;52.428;13.382;2022-12-07T03:05:20;9.80;;;3.55;;
61644;SDS011;47553;52.428;13.382;2022-12-07T03:07:34;7.43;;;3.30;;
61644;SDS011;47553;52.428;13.382;2022-12-07T03:09:42;9.77;;;3.55;;
61644;SDS011;47553;52.428;13.382;2022-12-07T03:11:51;6.88;;;2.90;;
61644;SDS011;47553;52.428;13.382;2022-12-07T03:14:02;10.02;;;3.58;;
61644;SDS011;47553;52.428;13.382;2022-12-07T03:16:13;8.35;;;3.58;;
61644;SDS011;47553;52.428;13.382;2022-12-07T03:18:18;9.15;;;3.38;;
61644;SDS011;47553;52.428;13.382;2022-12-07T03:20:23;9.95;;;4.00;;
61644;SDS011;47553;52.428;13.382;2022-12-07T03:22:27;9.05;;;3.67;;
61644;SDS011;47553;52.428;13.382;2022-12-07T03:24:33;10.88;;;3.70;;
61644;SDS011;47553;52.428;13.382;2022-12-07T03:26:38;10.70;;;4.47;;
61644;SDS011;47553;52.428;13.382;2022-12-07T03:28:47;9.63;;;3.75;;
61644;SDS011;47553;52.428;13.382;2022-12-07T03:30:55;9.27;;;3.67;;
61644;SDS011;47553;52.428;13.382;2022-12-07T03:33:01;10.18;;;3.75;;
61644;SDS011;47553;52.428;13.382;2022-12-07T03:35:09;9.75;;;3.47;;
61644;SDS011;47553;52.428;13.382;2022-12-07T03:37:17;9.88;;;3.97;;
61644;SDS011;47553;52.428;13.382;2022-12-07T03:39:26;11.05;;;4.25;;
61644;SDS011;47553;52.428;13.382;2022-12-07T03:41:32;10.02;;;4.05;;
61644;SDS011;47553;52.428;13.382;2022-12-07T03:43:41;9.80;;;3.72;;
61644;SDS011;47553;52.428;13.382;2022-12-07T03:45:43;11.80;;;4.75;;
61644;SDS011;47553;52.428;13.382;2022-12-07T03:47:53;12.60;;;4.57;;
61644;SDS011;47553;52.428;13.382;2022-12-07T03:50:04;12.85;;;4.70;;
61644;SDS011;47553;52.428;13.382;2022-12-07T03:52:16;10.18;;;3.95;;
61644;SDS011;47553;52.428;13.382;2022-12-07T03:54:24;11.80;;;4.55;;
61644;SDS011;47553;52.428;13.382;2022-12-07T03:56:28;9.90;;;4.00;;
61644;SDS011;47553;52.428;13.382;2022-12-07T03:58:31;11.10;;;4.15;;
61644;SDS011;47553;52.428;13.382;2022-12-07T04:00:34;10.65;;;3.92;;
61644;SDS011;47553;52.428;13.382;2022-12-07T04:02:36;11.05;;;4.13;;
61644;SDS011;47553;52.428;13.382;2022-12-07T04:04:38;12.45;;;4.38;;
61644;SDS011;47553;52.428;13.382;2022-12-07T04:06:40;12.35;;;4.93;;
61644;SDS011;47553;52.428;13.382;2022-12-07T04:08:43;11.52;;;4.40;;
61644;SDS011;47553;52.428;13.382;2022-12-07T04:10:45;13.90;;;5.03;;
61644;SDS011;47553;52.428;13.382;2022-12-07T04:12:47;12.88;;;4.78;;
61644;SDS011;47553;52.428;13.382;2022-12-07T04:14:48;12.20;;;4.72;;
61644;SDS011;47553;52.428;13.382;2022-12-07T04:16:51;14.30;;;5.10;;
61644;SDS011;47553;52.428;13.382;2022-12-07T04:18:53;14.45;;;5.18;;
61644;SDS011;47553;52.428;13.382;2022-12-07T04:20:55;16.95;;;6.05;;
61644;SDS011;47553;52.428;13.382;2022-12-07T04:22:56;14.93;;;5.68;;
61644;SDS011;47553;52.428;13.382;2022-12-07T04:25:00;16.45;;;5.88;;
61644;SDS011;47553;52.428;13.382;2022-12-07T04:27:02;15.07;;;5.57;;
61644;SDS011;47553;52.428;13.382;2022-12-07T04:29:04;17.88;;;6.30;;
61644;SDS011;47553;52.428;13.382;2022-12-07T04:31:08;18.10;;;6.15;;
61644;SDS011;47553;52.428;13.382;2022-12-07T04:33:10;17.88;;;6.78;;
61644;SDS011;47553;52.428;13.382;2022-12-07T04:35:12;16.38;;;5.93;;
61644;SDS011;47553;52.428;13.382;2022-12-07T04:37:14;17.65;;;6.65;;
61644;SDS011;47553;52.428;13.382;2022-12-07T04:39:19;19.27;;;7.20;;
61644;SDS011;47553;52.428;13.382;2022-12-07T04:41:23;20.15;;;6.97;;
61644;SDS011;47553;52.428;13.382;2022-12-07T04:43:25;17.13;;;6.03;;
61644;SDS011;47553;52.428;13.382;2022-12-07T04:45:27;18.50;;;6.53;;
61644;SDS011;47553;52.428;13.382;2022-12-07T04:49:31;25.55;;;7.70;;
61644;SDS011;47553;52.428;13.382;2022-12-07T04:51:33;21.15;;;7.28;;
61644;SDS011;47553;52.428;13.382;2022-12-07T04:55:36;20.25;;;6.80;;
61644;SDS011;47553;52.428;13.382;2022-12-07T04:57:39;24.00;;;7.90;;
61644;SDS011;47553;52.428;13.382;2022-12-07T04:59:41;23.05;;;7.72;;
61644;SDS011;47553;52.428;13.382;2022-12-07T05:01:46;22.45;;;7.28;;
61644;SDS011;47553;52.428;13.382;2022-12-07T05:05:49;19.55;;;6.70;;
61644;SDS011;47553;52.428;13.382;2022-12-07T05:09:53;22.67;;;6.93;;
61644;SDS011;47553;52.428;13.382;2022-12-07T05:11:54;19.27;;;7.35;;
61644;SDS011;47553;52.428;13.382;2022-12-07T05:13:58;23.00;;;7.70;;
61644;SDS011;47553;52.428;13.382;2022-12-07T05:16:00;21.85;;;7.75;;
61644;SDS011;47553;52.428;13.382;2022-12-07T05:18:02;19.90;;;7.43;;
61644;SDS011;47553;52.428;13.382;2022-12-07T05:20:04;23.02;;;8.00;;
61644;SDS011;47553;52.428;13.382;2022-12-07T05:22:07;22.35;;;7.97;;
61644;SDS011;47553;52.428;13.382;2022-12-07T05:24:09;22.15;;;7.97;;
61644;SDS011;47553;52.428;13.382;2022-12-07T05:26:13;23.40;;;8.27;;
61644;SDS011;47553;52.428;13.382;2022-12-07T05:28:15;23.85;;;7.47;;
61644;SDS011;47553;52.428;13.382;2022-12-07T05:30:18;22.30;;;7.68;;
61644;SDS011;47553;52.428;13.382;2022-12-07T05:32:20;25.33;;;8.65;;
61644;SDS011;47553;52.428;13.382;2022-12-07T05:34:22;22.88;;;8.40;;
61644;SDS011;47553;52.428;13.382;2022-12-07T05:36:24;26.08;;;8.82;;
61644;SDS011;47553;52.428;13.382;2022-12-07T05:38:26;27.95;;;9.30;;
61644;SDS011;47553;52.428;13.382;2022-12-07T05:42:30;23.45;;;7.82;;
61644;SDS011;47553;52.428;13.382;2022-12-07T05:46:35;22.85;;;7.90;;
61644;SDS011;47553;52.428;13.382;2022-12-07T05:48:36;21.60;;;7.63;;
61644;SDS011;47553;52.428;13.382;2022-12-07T05:50:39;25.48;;;9.10;;
61644;SDS011;47553;52.428;13.382;2022-12-07T05:54:42;23.73;;;7.85;;
61644;SDS011;47553;52.428;13.382;2022-12-07T05:56:44;26.25;;;9.70;;
61644;SDS011;47553;52.428;13.382;2022-12-07T05:58:46;24.10;;;7.72;;
61644;SDS011;47553;52.428;13.382;2022-12-07T06:00:49;27.60;;;9.20;;
61644;SDS011;47553;52.428;13.382;2022-12-07T06:02:57;26.30;;;8.55;;
61644;SDS011;47553;52.428;13.382;2022-12-07T06:04:59;31.25;;;9.93;;
61644;SDS011;47553;52.428;13.382;2022-12-07T06:07:01;29.10;;;9.93;;
61644;SDS011;47553;52.428;13.382;2022-12-07T06:09:03;21.98;;;7.85;;
61644;SDS011;47553;52.428;13.382;2022-12-07T06:11:06;24.70;;;9.20;;
61644;SDS011;47553;52.428;13.382;2022-12-07T06:13:07;23.63;;;8.63;;
61644;SDS011;47553;52.428;13.382;2022-12-07T06:15:09;30.55;;;10.48;;
61644;SDS011;47553;52.428;13.382;2022-12-07T06:17:12;26.75;;;8.13;;
61644;SDS011;47553;52.428;13.382;2022-12-07T06:19:15;25.80;;;8.73;;
61644;SDS011;47553;52.428;13.382;2022-12-07T06:21:17;25.80;;;8.93;;
61644;SDS011;47553;52.428;13.382;2022-12-07T06:23:19;27.40;;;9.38;;
61644;SDS011;47553;52.428;13.382;2022-12-07T06:25:21;30.90;;;9.35;;
61644;SDS011;47553;52.428;13.382;2022-12-07T06:27:22;30.42;;;9.60;;
61644;SDS011;47553;52.428;13.382;2022-12-07T06:29:24;26.98;;;10.05;;
61644;SDS011;47553;52.428;13.382;2022-12-07T06:31:26;30.42;;;9.63;;
61644;SDS011;47553;52.428;13.382;2022-12-07T06:33:28;24.92;;;8.85;;
61644;SDS011;47553;52.428;13.382;2022-12-07T06:35:33;25.05;;;8.70;;
61644;SDS011;47553;52.428;13.382;2022-12-07T06:37:35;26.13;;;8.60;;
61644;SDS011;47553;52.428;13.382;2022-12-07T06:39:37;26.00;;;8.55;;
61644;SDS011;47553;52.428;13.382;2022-12-07T06:43:40;30.17;;;9.00;;
61644;SDS011;47553;52.428;13.382;2022-12-07T06:47:44;27.70;;;9.15;;
61644;SDS011;47553;52.428;13.382;2022-12-07T06:49:47;31.23;;;9.70;;
61644;SDS011;47553;52.428;13.382;2022-12-07T06:51:51;30.20;;;9.50;;
61644;SDS011;47553;52.428;13.382;2022-12-07T06:53:53;25.92;;;9.10;;
61644;SDS011;47553;52.428;13.382;2022-12-07T06:57:56;28.08;;;9.00;;
61644;SDS011;47553;52.428;13.382;2022-12-07T06:59:58;28.23;;;9.35;;
61644;SDS011;47553;52.428;13.382;2022-12-07T07:02:01;26.70;;;9.38;;
61644;SDS011;47553;52.428;13.382;2022-12-07T07:04:03;30.70;;;10.57;;
61644;SDS011;47553;52.428;13.382;2022-12-07T07:06:05;24.85;;;8.80;;
61644;SDS011;47553;52.428;13.382;2022-12-07T07:08:09;22.00;;;8.52;;
61644;SDS011;47553;52.428;13.382;2022-12-07T07:10:26;25.80;;;8.55;;
61644;SDS011;47553;52.428;13.382;2022-12-07T07:14:30;23.30;;;8.15;;
61644;SDS011;47553;52.428;13.382;2022-12-07T07:16:32;23.67;;;8.48;;
61644;SDS011;47553;52.428;13.382;2022-12-07T07:18:33;27.75;;;8.95;;
61644;SDS011;47553;52.428;13.382;2022-12-07T07:22:37;25.75;;;8.77;;
61644;SDS011;47553;52.428;13.382;2022-12-07T07:24:41;25.00;;;7.93;;
61644;SDS011;47553;52.428;13.382;2022-12-07T07:26:43;21.42;;;7.80;;
61644;SDS011;47553;52.428;13.382;2022-12-07T07:28:45;23.42;;;8.60;;
61644;SDS011;47553;52.428;13.382;2022-12-07T07:30:46;21.20;;;8.30;;
61644;SDS011;47553;52.428;13.382;2022-12-07T07:34:50;23.20;;;8.23;;
61644;SDS011;47553;52.428;13.382;2022-12-07T07:38:53;22.33;;;7.60;;
61644;SDS011;47553;52.428;13.382;2022-12-07T07:40:56;22.80;;;7.57;;
61644;SDS011;47553;52.428;13.382;2022-12-07T07:42:58;19.70;;;7.38;;
61644;SDS011;47553;52.428;13.382;2022-12-07T07:44:59;25.17;;;8.30;;
61644;SDS011;47553;52.428;13.382;2022-12-07T07:49:03;26.42;;;8.35;;
61644;SDS011;47553;52.428;13.382;2022-12-07T07:51:05;21.27;;;6.47;;
61644;SDS011;47553;52.428;13.382;2022-12-07T07:53:07;20.45;;;6.75;;
61644;SDS011;47553;52.428;13.382;2022-12-07T07:55:09;20.70;;;7.43;;
61644;SDS011;47553;52.428;13.382;2022-12-07T07:57:12;21.75;;;7.38;;
61644;SDS011;47553;52.428;13.382;2022-12-07T07:59:14;16.58;;;6.00;;
61644;SDS011;47553;52.428;13.382;2022-12-07T08:01:16;18.77;;;5.93;;
61644;SDS011;47553;52.428;13.382;2022-12-07T08:03:18;20.15;;;6.72;;
61644;SDS011;47553;52.428;13.382;2022-12-07T08:05:19;15.00;;;5.78;;
61644;SDS011;47553;52.428;13.382;2022-12-07T08:07:21;17.60;;;5.75;;
61644;SDS011;47553;52.428;13.382;2022-12-07T08:11:24;14.93;;;5.88;;
61644;SDS011;47553;52.428;13.382;2022-12-07T08:13:27;17.77;;;5.90;;
61644;SDS011;47553;52.428;13.382;2022-12-07T08:15:31;12.90;;;5.30;;
61644;SDS011;47553;52.428;13.382;2022-12-07T08:17:34;17.30;;;6.20;;
61644;SDS011;47553;52.428;13.382;2022-12-07T08:21:37;15.65;;;5.38;;
61644;SDS011;47553;52.428;13.382;2022-12-07T08:23:39;11.82;;;4.10;;
61644;SDS011;47553;52.428;13.382;2022-12-07T08:25:41;11.73;;;4.55;;
61644;SDS011;47553;52.428;13.382;2022-12-07T08:27:42;14.02;;;4.95;;
61644;SDS011;47553;52.428;13.382;2022-12-07T08:29:45;9.18;;;3.70;;
61644;SDS011;47553;52.428;13.382;2022-12-07T08:31:47;11.70;;;4.10;;
61644;SDS011;47553;52.428;13.382;2022-12-07T08:33:49;10.13;;;3.42;;
61644;SDS011;47553;52.428;13.382;2022-12-07T08:37:52;8.35;;;3.03;;
61644;SDS011;47553;52.428;13.382;2022-12-07T08:39:53;8.15;;;2.55;;
61644;SDS011;47553;52.428;13.382;2022-12-07T08:41:55;5.97;;;2.50;;
61644;SDS011;47553;52.428;13.382;2022-12-07T08:43:57;9.20;;;2.63;;
61644;SDS011;47553;52.428;13.382;2022-12-07T08:46:02;6.28;;;3.03;;
61644;SDS011;47553;52.428;13.382;2022-12-07T08:48:08;8.60;;;2.90;;
61644;SDS011;47553;52.428;13.382;2022-12-07T08:50:14;8.02;;;2.95;;
61644;SDS011;47553;52.428;13.382;2022-12-07T08:52:16;7.00;;;2.65;;
61644;SDS011;47553;52.428;13.382;2022-12-07T08:54:18;6.28;;;2.80;;
61644;SDS011;47553;52.428;13.382;2022-12-07T08:56:21;7.88;;;2.63;;
61644;SDS011;47553;52.428;13.382;2022-12-07T08:58:26;8.68;;;2.92;;
61644;SDS011;47553;52.428;13.382;2022-12-07T09:00:28;7.80;;;2.72;;
61644;SDS011;47553;52.428;13.382;2022-12-07T09:02:32;9.90;;;2.83;;
61644;SDS011;47553;52.428;13.382;2022-12-07T09:04:35;7.95;;;3.05;;
61644;SDS011;47553;52.428;13.382;2022-12-07T09:06:37;7.57;;;2.53;;
61644;SDS011;47553;52.428;13.382;2022-12-07T09:08:40;6.32;;;2.33;;
61644;SDS011;47553;52.428;13.382;2022-12-07T09:10:45;5.15;;;2.00;;
61644;SDS011;47553;52.428;13.382;2022-12-07T09:12:46;4.50;;;1.70;;
61644;SDS011;47553;52.428;13.382;2022-12-07T09:16:50;4.82;;;1.73;;
61644;SDS011;47553;52.428;13.382;2022-12-07T09:18:53;4.45;;;1.60;;
61644;SDS011;47553;52.428;13.382;2022-12-07T09:20:55;5.35;;;1.48;;
61644;SDS011;47553;52.428;13.382;2022-12-07T09:22:57;4.28;;;1.60;;
61644;SDS011;47553;52.428;13.382;2022-12-07T09:24:59;5.25;;;1.70;;
61644;SDS011;47553;52.428;13.382;2022-12-07T09:27:02;4.65;;;1.80;;
61644;SDS011;47553;52.428;13.382;2022-12-07T09:29:04;4.55;;;1.58;;
61644;SDS011;47553;52.428;13.382;2022-12-07T09:31:06;4.05;;;1.60;;
61644;SDS011;47553;52.428;13.382;2022-12-07T09:33:24;4.57;;;1.95;;
61644;SDS011;47553;52.428;13.382;2022-12-07T09:35:28;4.68;;;1.60;;
61644;SDS011;47553;52.428;13.382;2022-12-07T09:37:30;3.47;;;1.30;;
61644;SDS011;47553;52.428;13.382;2022-12-07T09:39:32;4.05;;;1.40;;
61644;SDS011;47553;52.428;13.382;2022-12-07T09:41:34;4.60;;;1.52;;
61644;SDS011;47553;52.428;13.382;2022-12-07T09:43:40;3.97;;;1.40;;
61644;SDS011;47553;52.428;13.382;2022-12-07T09:45:43;4.93;;;1.60;;
61644;SDS011;47553;52.428;13.382;2022-12-07T09:47:49;4.38;;;1.40;;
61644;SDS011;47553;52.428;13.382;2022-12-07T09:49:51;3.85;;;1.50;;
61644;SDS011;47553;52.428;13.382;2022-12-07T09:52:01;5.68;;;1.63;;
61644;SDS011;47553;52.428;13.382;2022-12-07T09:54:05;3.58;;;1.20;;
61644;SDS011;47553;52.428;13.382;2022-12-07T09:56:08;4.75;;;1.50;;
61644;SDS011;47553;52.428;13.382;2022-12-07T09:58:17;4.38;;;1.50;;
61644;SDS011;47553;52.428;13.382;2022-12-07T10:00:22;5.93;;;1.70;;
61644;SDS011;47553;52.428;13.382;2022-12-07T10:02:28;4.75;;;1.50;;
61644;SDS011;47553;52.428;13.382;2022-12-07T10:04:36;3.40;;;1.25;;
61644;SDS011;47553;52.428;13.382;2022-12-07T10:06:39;3.28;;;1.30;;
61644;SDS011;47553;52.428;13.382;2022-12-07T10:08:42;3.80;;;1.42;;
61644;SDS011;47553;52.428;13.382;2022-12-07T10:10:44;4.05;;;1.60;;
61644;SDS011;47553;52.428;13.382;2022-12-07T10:12:57;4.03;;;1.50;;
61644;SDS011;47553;52.428;13.382;2022-12-07T10:15:01;3.78;;;1.40;;
61644;SDS011;47553;52.428;13.382;2022-12-07T10:17:27;3.72;;;1.38;;
61644;SDS011;47553;52.428;13.382;2022-12-07T10:19:32;3.97;;;1.52;;
61644;SDS011;47553;52.428;13.382;2022-12-07T10:21:34;4.55;;;1.30;;
61644;SDS011;47553;52.428;13.382;2022-12-07T10:23:36;5.47;;;1.48;;
61644;SDS011;47553;52.428;13.382;2022-12-07T10:25:41;4.03;;;1.40;;
61644;SDS011;47553;52.428;13.382;2022-12-07T10:27:42;4.88;;;1.30;;
61644;SDS011;47553;52.428;13.382;2022-12-07T10:29:46;3.75;;;1.27;;
61644;SDS011;47553;52.428;13.382;2022-12-07T10:31:52;4.03;;;1.60;;
61644;SDS011;47553;52.428;13.382;2022-12-07T10:33:57;4.38;;;1.33;;
61644;SDS011;47553;52.428;13.382;2022-12-07T10:36:01;3.45;;;1.27;;
61644;SDS011;47553;52.428;13.382;2022-12-07T10:38:18;3.92;;;1.40;;
61644;SDS011;47553;52.428;13.382;2022-12-07T10:40:30;4.43;;;1.60;;
61644;SDS011;47553;52.428;13.382;2022-12-07T10:42:35;4.45;;;1.65;;
61644;SDS011;47553;52.428;13.382;2022-12-07T10:44:36;4.07;;;1.33;;
61644;SDS011;47553;52.428;13.382;2022-12-07T10:49:04;4.93;;;1.52;;
61644;SDS011;47553;52.428;13.382;2022-12-07T10:51:26;6.03;;;1.90;;
61644;SDS011;47553;52.428;13.382;2022-12-07T10:53:44;4.63;;;1.85;;
61644;SDS011;47553;52.428;13.382;2022-12-07T10:56:04;4.43;;;1.67;;
61644;SDS011;47553;52.428;13.382;2022-12-07T10:58:27;6.00;;;1.85;;
61644;SDS011;47553;52.428;13.382;2022-12-07T11:00:43;4.07;;;1.63;;
61644;SDS011;47553;52.428;13.382;2022-12-07T11:05:26;6.15;;;2.10;;
61644;SDS011;47553;52.428;13.382;2022-12-07T11:07:34;7.03;;;2.42;;
61644;SDS011;47553;52.428;13.382;2022-12-07T11:12:12;5.50;;;2.50;;
61644;SDS011;47553;52.428;13.382;2022-12-07T11:14:19;5.63;;;2.45;;
61644;SDS011;47553;52.428;13.382;2022-12-07T11:16:31;6.75;;;2.67;;
61644;SDS011;47553;52.428;13.382;2022-12-07T11:18:43;7.85;;;2.78;;
61644;SDS011;47553;52.428;13.382;2022-12-07T11:20:52;7.18;;;2.42;;
61644;SDS011;47553;52.428;13.382;2022-12-07T11:23:01;7.78;;;2.33;;
61644;SDS011;47553;52.428;13.382;2022-12-07T11:25:14;7.57;;;2.63;;
61644;SDS011;47553;52.428;13.382;2022-12-07T11:27:32;6.80;;;2.58;;
61644;SDS011;47553;52.428;13.382;2022-12-07T11:29:46;5.95;;;2.20;;
61644;SDS011;47553;52.428;13.382;2022-12-07T11:31:57;5.20;;;2.20;;
61644;SDS011;47553;52.428;13.382;2022-12-07T11:34:06;7.07;;;2.30;;
61644;SDS011;47553;52.428;13.382;2022-12-07T11:36:29;5.82;;;2.30;;
61644;SDS011;47553;52.428;13.382;2022-12-07T11:38:38;5.22;;;2.08;;
61644;SDS011;47553;52.428;13.382;2022-12-07T11:40:45;5.85;;;2.35;;
61644;SDS011;47553;52.428;13.382;2022-12-07T11:42:50;5.93;;;2.13;;
61644;SDS011;47553;52.428;13.382;2022-12-07T11:44:56;5.57;;;1.92;;
61644;SDS011;47553;52.428;13.382;2022-12-07T11:47:05;6.07;;;2.20;;
61644;SDS011;47553;52.428;13.382;2022-12-07T11:49:12;7.25;;;2.13;;
61644;SDS011;47553;52.428;13.382;2022-12-07T11:51:20;7.88;;;2.40;;
61644;SDS011;47553;52.428;13.382;2022-12-07T11:53:25;6.72;;;2.20;;
61644;SDS011;47553;52.428;13.382;2022-12-07T11:55:38;6.05;;;2.13;;
61644;SDS011;47553;52.428;13.382;2022-12-07T11:57:44;4.80;;;2.00;;
61644;SDS011;47553;52.428;13.382;2022-12-07T11:59:52;5.63;;;2.20;;
61644;SDS011;47553;52.428;13.382;2022-12-07T12:02:02;7.50;;;2.40;;
61644;SDS011;47553;52.428;13.382;2022-12-07T12:04:22;5.75;;;2.20;;
61644;SDS011;47553;52.428;13.382;2022-12-07T12:06:31;5.75;;;1.60;;
61644;SDS011;47553;52.428;13.382;2022-12-07T12:10:59;6.60;;;2.28;;
61644;SDS011;47553;52.428;13.382;2022-12-07T12:16:08;6.80;;;2.00;;
61644;SDS011;47553;52.428;13.382;2022-12-07T12:18:27;9.48;;;2.15;;
61644;SDS011;47553;52.428;13.382;2022-12-07T12:20:40;5.72;;;1.90;;
61644;SDS011;47553;52.428;13.382;2022-12-07T12:22:45;6.15;;;1.70;;
61644;SDS011;47553;52.428;13.382;2022-12-07T12:24:52;6.85;;;2.00;;
61644;SDS011;47553;52.428;13.382;2022-12-07T12:26:57;6.68;;;2.00;;
61644;SDS011;47553;52.428;13.382;2022-12-07T12:29:03;7.57;;;2.20;;
61644;SDS011;47553;52.428;13.382;2022-12-07T12:31:09;4.75;;;2.05;;
61644;SDS011;47553;52.428;13.382;2022-12-07T12:33:14;5.07;;;2.17;;
61644;SDS011;47553;52.428;13.382;2022-12-07T12:35:30;7.78;;;2.05;;
61644;SDS011;47553;52.428;13.382;2022-12-07T12:37:44;6.57;;;2.35;;
61644;SDS011;47553;52.428;13.382;2022-12-07T12:42:43;7.43;;;1.92;;
61644;SDS011;47553;52.428;13.382;2022-12-07T12:51:43;6.65;;;2.35;;
61644;SDS011;47553;52.428;13.382;2022-12-07T12:53:46;7.38;;;2.58;;
61644;SDS011;47553;52.428;13.382;2022-12-07T12:58:32;9.05;;;2.40;;
61644;SDS011;47553;52.428;13.382;2022-12-07T13:00:36;5.68;;;2.13;;
61644;SDS011;47553;52.428;13.382;2022-12-07T13:04:50;6.45;;;2.08;;
61644;SDS011;47553;52.428;13.382;2022-12-07T13:06:57;8.60;;;2.22;;
61644;SDS011;47553;52.428;13.382;2022-12-07T13:08:58;7.07;;;2.22;;
61644;SDS011;47553;52.428;13.382;2022-12-07T13:11:15;7.35;;;2.40;;
61644;SDS011;47553;52.428;13.382;2022-12-07T13:13:31;7.60;;;2.65;;
61644;SDS011;47553;52.428;13.382;2022-12-07T13:15:35;5.38;;;2.00;;
61644;SDS011;47553;52.428;13.382;2022-12-07T13:17:57;6.88;;;1.80;;
61644;SDS011;47553;52.428;13.382;2022-12-07T13:20:02;6.22;;;2.08;;
61644;SDS011;47553;52.428;13.382;2022-12-07T13:24:56;8.43;;;2.22;;
61644;SDS011;47553;52.428;13.382;2022-12-07T13:26:58;5.43;;;2.17;;
61644;SDS011;47553;52.428;13.382;2022-12-07T13:29:05;6.65;;;2.10;;
61644;SDS011;47553;52.428;13.382;2022-12-07T13:33:35;5.47;;;1.65;;
61644;SDS011;47553;52.428;13.382;2022-12-07T13:37:39;5.50;;;1.67;;
61644;SDS011;47553;52.428;13.382;2022-12-07T13:39:44;4.63;;;1.52;;
61644;SDS011;47553;52.428;13.382;2022-12-07T13:41:50;14.32;;;2.35;;
61644;SDS011;47553;52.428;13.382;2022-12-07T13:43:59;5.53;;;2.00;;
61644;SDS011;47553;52.428;13.382;2022-12-07T13:46:02;6.63;;;1.85;;
61644;SDS011;47553;52.428;13.382;2022-12-07T13:48:10;7.10;;;1.80;;